createdAt,value
2017-09-30T00:00:32.539Z,1008.44
2017-09-30T00:01:32.501Z,1008.49
2017-09-30T00:02:32.508Z,1008.46
2017-09-30T00:03:32.444Z,1008.52
2017-09-30T00:04:32.414Z,1008.58
2017-09-30T00:05:32.384Z,1008.56
2017-09-30T00:06:32.351Z,1008.56
2017-09-30T00:07:32.327Z,1008.52
2017-09-30T00:08:32.291Z,1008.58
2017-09-30T00:09:32.264Z,1008.53
2017-09-30T00:10:32.237Z,1008.57
2017-09-30T00:11:32.205Z,1008.57
2017-09-30T00:12:32.177Z,1008.62
2017-09-30T00:13:32.145Z,1008.59
2017-09-30T00:14:32.115Z,1008.61
2017-09-30T00:15:32.085Z,1008.65
2017-09-30T00:16:32.054Z,1008.60
2017-09-30T00:17:32.033Z,1008.57
2017-09-30T00:18:31.997Z,1008.61
2017-09-30T00:19:31.971Z,1008.60
2017-09-30T00:20:31.936Z,1008.55
2017-09-30T00:21:31.908Z,1008.53
2017-09-30T00:22:31.879Z,1008.53
2017-09-30T00:23:31.847Z,1008.57
2017-09-30T00:24:31.819Z,1008.52
2017-09-30T00:25:31.790Z,1008.55
2017-09-30T00:26:31.759Z,1008.58
2017-09-30T00:27:31.731Z,1008.49
2017-09-30T00:28:31.699Z,1008.52
2017-09-30T00:29:31.672Z,1008.47
2017-09-30T00:30:31.641Z,1008.52
2017-09-30T00:31:31.611Z,1008.51
2017-09-30T00:32:31.582Z,1008.49
2017-09-30T00:33:31.551Z,1008.48
2017-09-30T00:34:31.524Z,1008.44
2017-09-30T00:35:31.493Z,1008.46
2017-09-30T00:36:31.463Z,1008.45
2017-09-30T00:37:31.433Z,1008.46
2017-09-30T00:38:31.403Z,1008.46
2017-09-30T00:39:31.374Z,1008.52
2017-09-30T00:40:31.345Z,1008.50
2017-09-30T00:41:31.312Z,1008.49
2017-09-30T00:42:31.285Z,1008.49
2017-09-30T00:43:31.255Z,1008.54
2017-09-30T00:44:31.225Z,1008.50
2017-09-30T00:45:31.196Z,1008.56
2017-09-30T00:46:31.168Z,1008.51
2017-09-30T00:47:31.136Z,1008.61
2017-09-30T00:48:31.107Z,1008.58
2017-09-30T00:49:31.076Z,1008.57
2017-09-30T00:50:31.051Z,1008.65
2017-09-30T00:51:31.018Z,1008.66
2017-09-30T00:52:30.988Z,1008.77
2017-09-30T00:53:30.959Z,1008.78
2017-09-30T00:54:30.928Z,1008.84
2017-09-30T00:55:30.899Z,1008.80
2017-09-30T00:56:30.875Z,1008.82
2017-09-30T00:57:30.840Z,1008.96
2017-09-30T00:58:30.811Z,1008.94
2017-09-30T00:59:30.780Z,1008.96
2017-09-30T01:00:30.750Z,1009.02
2017-09-30T01:01:30.719Z,1009.02
2017-09-30T01:02:30.691Z,1009.05
2017-09-30T01:03:30.657Z,1009.07
2017-09-30T01:04:30.630Z,1009.05
2017-09-30T01:05:30.600Z,1009.09
2017-09-30T01:06:30.572Z,1009.06
2017-09-30T01:07:30.542Z,1009.04
2017-09-30T01:08:30.513Z,1009.01
2017-09-30T01:09:30.483Z,1009.12
2017-09-30T01:10:30.453Z,1009.09
2017-09-30T01:11:30.424Z,1009.10
2017-09-30T01:12:30.393Z,1009.18
2017-09-30T01:13:30.364Z,1009.26
2017-09-30T01:14:30.335Z,1009.33
2017-09-30T01:15:30.304Z,1009.50
2017-09-30T01:16:30.274Z,1009.48
2017-09-30T01:17:30.245Z,1009.40
2017-09-30T01:18:30.216Z,1009.44
2017-09-30T01:19:30.184Z,1009.38
2017-09-30T01:20:30.156Z,1009.28
2017-09-30T01:21:30.126Z,1009.43
2017-09-30T01:22:30.098Z,1009.50
2017-09-30T01:23:30.066Z,1009.43
2017-09-30T01:24:30.036Z,1009.40
2017-09-30T01:25:30.009Z,1009.50
2017-09-30T01:26:29.976Z,1009.48
2017-09-30T01:27:29.948Z,1009.52
2017-09-30T01:28:29.917Z,1009.46
2017-09-30T01:29:29.888Z,1009.36
2017-09-30T01:30:29.858Z,1009.24
2017-09-30T01:31:29.827Z,1009.26
2017-09-30T01:32:29.798Z,1009.25
2017-09-30T01:33:29.772Z,1009.27
2017-09-30T01:34:29.741Z,1009.30
2017-09-30T01:35:29.709Z,1009.22
2017-09-30T01:36:29.679Z,1009.19
2017-09-30T01:37:29.651Z,1009.15
2017-09-30T01:38:29.620Z,1009.18
2017-09-30T01:39:29.591Z,1009.13
2017-09-30T01:40:29.561Z,1009.09
2017-09-30T01:41:29.531Z,1009.07
2017-09-30T01:42:29.501Z,1009.03
2017-09-30T01:43:29.479Z,1009.01
2017-09-30T01:44:29.442Z,1009.03
2017-09-30T01:45:29.412Z,1009.11
2017-09-30T01:46:29.382Z,1009.07
2017-09-30T01:47:29.351Z,1009.16
2017-09-30T01:48:29.321Z,1009.18
2017-09-30T01:49:29.292Z,1009.16
2017-09-30T01:50:29.263Z,1009.12
2017-09-30T01:51:29.232Z,1009.13
2017-09-30T01:52:29.202Z,1009.15
2017-09-30T01:53:29.172Z,1009.12
2017-09-30T01:54:29.143Z,1009.17
2017-09-30T01:55:29.111Z,1009.12
2017-09-30T01:56:29.083Z,1009.10
2017-09-30T01:57:29.053Z,1009.15
2017-09-30T01:58:29.022Z,1009.12
2017-09-30T01:59:28.993Z,1009.04
2017-09-30T02:00:28.962Z,1009.04
2017-09-30T02:01:28.932Z,1008.99
2017-09-30T02:02:28.905Z,1009.07
2017-09-30T02:03:28.873Z,1008.94
2017-09-30T02:04:28.843Z,1008.97
2017-09-30T02:05:28.814Z,1008.88
2017-09-30T02:06:28.783Z,1008.88
2017-09-30T02:07:28.753Z,1008.81
2017-09-30T02:08:28.724Z,1008.78
2017-09-30T02:09:28.693Z,1008.72
2017-09-30T02:10:28.665Z,1008.77
2017-09-30T02:11:28.633Z,1008.85
2017-09-30T02:12:28.601Z,1008.87
2017-09-30T02:13:28.576Z,1008.81
2017-09-30T02:14:28.543Z,1008.78
2017-09-30T02:15:28.513Z,1008.72
2017-09-30T02:16:28.485Z,1008.66
2017-09-30T02:17:28.452Z,1008.65
2017-09-30T02:18:28.424Z,1008.66
2017-09-30T02:19:28.395Z,1008.65
2017-09-30T02:20:28.362Z,1008.68
2017-09-30T02:21:28.333Z,1008.59
2017-09-30T02:22:28.302Z,1008.75
2017-09-30T02:23:28.271Z,1008.76
2017-09-30T02:24:28.241Z,1008.79
2017-09-30T02:25:28.210Z,1008.77
2017-09-30T02:26:28.180Z,1008.77
2017-09-30T02:27:28.149Z,1008.67
2017-09-30T02:28:28.118Z,1008.53
2017-09-30T02:29:28.091Z,1008.63
2017-09-30T02:30:28.059Z,1008.60
2017-09-30T02:31:28.030Z,1008.67
2017-09-30T02:32:27.998Z,1008.64
2017-09-30T02:33:27.967Z,1008.59
2017-09-30T02:34:27.936Z,1008.62
2017-09-30T02:35:27.908Z,1008.55
2017-09-30T02:36:27.878Z,1008.53
2017-09-30T02:37:27.846Z,1008.53
2017-09-30T02:38:27.820Z,1008.46
2017-09-30T02:39:27.783Z,1008.48
2017-09-30T02:40:27.755Z,1008.44
2017-09-30T02:41:27.725Z,1008.43
2017-09-30T02:42:27.691Z,1008.36
2017-09-30T02:43:27.662Z,1008.25
2017-09-30T02:44:27.631Z,1008.24
2017-09-30T02:45:27.602Z,1008.29
2017-09-30T02:46:27.571Z,1008.22
2017-09-30T02:47:27.541Z,1008.25
2017-09-30T02:48:27.517Z,1008.21
2017-09-30T02:49:27.481Z,1008.25
2017-09-30T02:50:27.450Z,1008.22
2017-09-30T02:51:27.419Z,1008.05
2017-09-30T02:52:27.388Z,1008.04
2017-09-30T02:53:27.358Z,1007.97
2017-09-30T02:54:27.331Z,1007.94
2017-09-30T02:55:27.300Z,1007.92
2017-09-30T02:56:27.265Z,1007.96
2017-09-30T02:57:27.237Z,1008.02
2017-09-30T02:58:27.208Z,1008.00
2017-09-30T02:59:27.175Z,1007.99
2017-09-30T03:00:27.146Z,1007.93
2017-09-30T03:01:27.114Z,1007.80
2017-09-30T03:02:27.084Z,1007.78
2017-09-30T03:03:27.053Z,1007.80
2017-09-30T03:04:27.024Z,1007.78
2017-09-30T03:05:26.993Z,1007.73
2017-09-30T03:06:26.963Z,1007.69
2017-09-30T03:07:26.931Z,1007.69
2017-09-30T03:08:26.904Z,1007.67
2017-09-30T03:09:26.871Z,1007.63
2017-09-30T03:10:26.842Z,1007.66
2017-09-30T03:11:26.809Z,1007.76
2017-09-30T03:12:26.777Z,1007.78
2017-09-30T03:13:26.747Z,1007.83
2017-09-30T03:14:26.717Z,1007.82
2017-09-30T03:15:26.687Z,1007.79
2017-09-30T03:16:26.658Z,1007.80
2017-09-30T03:17:26.625Z,1007.81
2017-09-30T03:18:26.592Z,1007.77
2017-09-30T03:19:26.568Z,1007.81
2017-09-30T03:20:26.547Z,1007.82
2017-09-30T03:21:26.503Z,1007.77
2017-09-30T03:22:26.473Z,1007.84
2017-09-30T03:23:26.441Z,1007.82
2017-09-30T03:24:26.410Z,1007.83
2017-09-30T03:25:26.382Z,1007.84
2017-09-30T03:26:26.351Z,1007.83
2017-09-30T03:27:26.318Z,1007.83
2017-09-30T03:28:26.284Z,1007.83
2017-09-30T03:29:26.257Z,1007.85
2017-09-30T03:30:26.235Z,1007.98
2017-09-30T03:31:26.199Z,1007.99
2017-09-30T03:32:26.164Z,1008.01
2017-09-30T03:33:26.134Z,1008.00
2017-09-30T03:34:26.101Z,1008.00
2017-09-30T03:35:26.071Z,1008.00
2017-09-30T03:36:26.039Z,1007.98
2017-09-30T03:37:26.011Z,1008.03
2017-09-30T03:38:25.980Z,1008.08
2017-09-30T03:39:25.953Z,1008.03
2017-09-30T03:40:25.917Z,1007.93
2017-09-30T03:41:25.886Z,1007.92
2017-09-30T03:42:25.855Z,1007.93
2017-09-30T03:43:25.824Z,1007.88
2017-09-30T03:44:25.793Z,1007.82
2017-09-30T03:45:25.773Z,1007.85
2017-09-30T03:46:25.730Z,1007.82
2017-09-30T03:47:25.700Z,1007.84
2017-09-30T03:48:25.668Z,1007.81
2017-09-30T03:49:25.637Z,1007.82
2017-09-30T03:50:25.606Z,1007.74
2017-09-30T03:51:25.575Z,1007.75
2017-09-30T03:52:25.545Z,1007.78
2017-09-30T03:53:25.514Z,1007.77
2017-09-30T03:54:25.484Z,1007.76
2017-09-30T03:55:25.450Z,1007.77
2017-09-30T03:56:25.420Z,1007.67
2017-09-30T03:57:25.388Z,1007.70
2017-09-30T03:58:25.358Z,1007.72
2017-09-30T03:59:25.325Z,1007.76
2017-09-30T04:00:25.289Z,1007.79
2017-09-30T04:01:25.266Z,1007.80
2017-09-30T04:02:25.234Z,1007.80
2017-09-30T04:03:25.203Z,1007.85
2017-09-30T04:04:25.172Z,1007.88
2017-09-30T04:05:25.142Z,1007.88
2017-09-30T04:06:25.110Z,1007.88
2017-09-30T04:07:25.078Z,1007.82
2017-09-30T04:08:25.047Z,1007.81
2017-09-30T04:09:25.017Z,1007.71
2017-09-30T04:10:24.987Z,1007.71
2017-09-30T04:11:24.953Z,1007.70
2017-09-30T04:12:24.922Z,1007.70
2017-09-30T04:13:24.891Z,1007.62
2017-09-30T04:14:24.861Z,1007.58
2017-09-30T04:15:24.828Z,1007.52
2017-09-30T04:16:24.798Z,1007.55
2017-09-30T04:17:24.787Z,1007.56
2017-09-30T04:18:24.736Z,1007.60
2017-09-30T04:19:24.703Z,1007.70
2017-09-30T04:20:24.674Z,1007.75
2017-09-30T04:21:24.643Z,1007.74
2017-09-30T04:22:24.612Z,1007.71
2017-09-30T04:23:24.579Z,1007.75
2017-09-30T04:24:24.549Z,1007.80
2017-09-30T04:25:24.519Z,1007.82
2017-09-30T04:26:24.489Z,1007.89
2017-09-30T04:27:24.456Z,1007.89
2017-09-30T04:28:24.427Z,1007.92
2017-09-30T04:29:24.394Z,1007.85
2017-09-30T04:30:24.367Z,1007.84
2017-09-30T04:31:24.333Z,1007.88
2017-09-30T04:32:24.308Z,1007.88
2017-09-30T04:33:24.269Z,1007.87
2017-09-30T04:34:24.240Z,1007.89
2017-09-30T04:35:24.213Z,1007.86
2017-09-30T04:36:24.178Z,1007.92
2017-09-30T04:37:24.148Z,1007.87
2017-09-30T04:38:24.116Z,1007.88
2017-09-30T04:39:24.085Z,1007.83
2017-09-30T04:40:24.053Z,1007.92
2017-09-30T04:41:24.024Z,1007.92
2017-09-30T04:42:23.994Z,1007.87
2017-09-30T04:43:23.962Z,1007.87
2017-09-30T04:44:23.932Z,1007.91
2017-09-30T04:45:23.904Z,1007.87
2017-09-30T04:46:23.869Z,1007.78
2017-09-30T04:47:23.837Z,1007.90
2017-09-30T04:48:23.806Z,1007.90
2017-09-30T04:49:23.775Z,1007.88
2017-09-30T04:50:23.746Z,1007.87
2017-09-30T04:51:23.713Z,1007.89
2017-09-30T04:52:23.682Z,1007.81
2017-09-30T04:53:23.657Z,1007.82
2017-09-30T04:54:23.621Z,1007.78
2017-09-30T04:55:23.590Z,1007.78
2017-09-30T04:56:23.559Z,1007.75
2017-09-30T04:57:23.533Z,1007.71
2017-09-30T04:58:23.495Z,1007.74
2017-09-30T04:59:23.466Z,1007.74
2017-09-30T05:00:23.435Z,1007.75
2017-09-30T05:01:23.404Z,1007.72
2017-09-30T05:02:23.372Z,1007.60
2017-09-30T05:03:23.340Z,1007.61
2017-09-30T05:04:23.311Z,1007.64
2017-09-30T05:05:23.279Z,1007.62
2017-09-30T05:06:23.247Z,1007.66
2017-09-30T05:07:23.224Z,1007.56
2017-09-30T05:08:23.186Z,1007.62
2017-09-30T05:09:23.154Z,1007.62
2017-09-30T05:10:23.125Z,1007.64
2017-09-30T05:11:23.093Z,1007.65
2017-09-30T05:12:23.063Z,1007.66
2017-09-30T05:13:23.029Z,1007.71
2017-09-30T05:14:22.999Z,1007.69
2017-09-30T05:15:22.967Z,1007.67
2017-09-30T05:16:22.937Z,1007.64
2017-09-30T05:17:22.906Z,1007.66
2017-09-30T05:18:22.876Z,1007.60
2017-09-30T05:19:22.845Z,1007.67
2017-09-30T05:20:22.818Z,1007.58
2017-09-30T05:21:22.784Z,1007.64
2017-09-30T05:22:22.752Z,1007.58
2017-09-30T05:23:22.721Z,1007.63
2017-09-30T05:24:22.691Z,1007.60
2017-09-30T05:25:22.661Z,1007.59
2017-09-30T05:26:22.628Z,1007.61
2017-09-30T05:27:22.598Z,1007.55
2017-09-30T05:28:22.566Z,1007.61
2017-09-30T05:29:22.537Z,1007.65
2017-09-30T05:30:22.511Z,1007.58
2017-09-30T05:31:22.474Z,1007.62
2017-09-30T05:32:22.445Z,1007.64
2017-09-30T05:33:22.415Z,1007.61
2017-09-30T05:34:22.382Z,1007.63
2017-09-30T05:35:22.351Z,1007.67
2017-09-30T05:36:22.324Z,1007.69
2017-09-30T05:37:22.291Z,1007.64
2017-09-30T05:38:22.266Z,1007.61
2017-09-30T05:39:22.229Z,1007.61
2017-09-30T05:40:22.196Z,1007.52
2017-09-30T05:41:22.166Z,1007.56
2017-09-30T05:42:22.136Z,1007.50
2017-09-30T05:43:22.105Z,1007.50
2017-09-30T05:44:22.074Z,1007.49
2017-09-30T05:45:22.043Z,1007.51
2017-09-30T05:46:22.013Z,1007.55
2017-09-30T05:47:21.981Z,1007.58
2017-09-30T05:48:21.950Z,1007.67
2017-09-30T05:49:21.920Z,1007.75
2017-09-30T05:50:21.891Z,1007.85
2017-09-30T05:51:21.860Z,1007.84
2017-09-30T05:52:21.841Z,1007.87
2017-09-30T05:53:21.799Z,1007.89
2017-09-30T05:54:21.767Z,1007.87
2017-09-30T05:55:21.735Z,1007.97
2017-09-30T05:56:21.705Z,1008.01
2017-09-30T05:57:21.674Z,1008.06
2017-09-30T05:58:21.643Z,1008.08
2017-09-30T05:59:21.612Z,1008.05
2017-09-30T06:00:21.582Z,1008.06
2017-09-30T06:01:21.550Z,1008.05
2017-09-30T06:02:21.527Z,1008.05
2017-09-30T06:03:21.486Z,1008.00
2017-09-30T06:04:21.458Z,1008.05
2017-09-30T06:05:21.426Z,1007.99
2017-09-30T06:06:21.394Z,1007.94
2017-09-30T06:07:21.362Z,1008.05
2017-09-30T06:08:21.331Z,1008.08
2017-09-30T06:09:21.304Z,1008.10
2017-09-30T06:10:21.271Z,1008.13
2017-09-30T06:11:21.237Z,1008.20
2017-09-30T06:12:21.210Z,1008.18
2017-09-30T06:13:21.177Z,1008.17
2017-09-30T06:14:21.145Z,1008.16
2017-09-30T06:15:21.112Z,1008.19
2017-09-30T06:16:21.081Z,1008.13
2017-09-30T06:17:21.052Z,1008.13
2017-09-30T06:18:21.019Z,1008.10
2017-09-30T06:19:20.987Z,1008.07
2017-09-30T06:20:20.957Z,1008.08
2017-09-30T06:21:20.925Z,1008.06
2017-09-30T06:22:20.896Z,1008.06
2017-09-30T06:23:20.865Z,1008.05
2017-09-30T06:24:20.833Z,1008.08
2017-09-30T06:25:20.801Z,1008.12
2017-09-30T06:26:20.772Z,1008.12
2017-09-30T06:27:20.736Z,1008.11
2017-09-30T06:28:20.707Z,1008.09
2017-09-30T06:29:20.678Z,1007.99
2017-09-30T06:30:20.646Z,1008.05
2017-09-30T06:31:20.613Z,1008.00
2017-09-30T06:32:20.584Z,1008.00
2017-09-30T06:33:20.550Z,1008.01
2017-09-30T06:34:20.524Z,1007.99
2017-09-30T06:35:20.489Z,1007.99
2017-09-30T06:36:20.456Z,1007.93
2017-09-30T06:37:20.426Z,1007.95
2017-09-30T06:38:20.395Z,1007.99
2017-09-30T06:39:20.364Z,1007.91
2017-09-30T06:40:20.331Z,1008.02
2017-09-30T06:41:20.301Z,1007.99
2017-09-30T06:42:20.275Z,1008.01
2017-09-30T06:43:20.240Z,1008.00
2017-09-30T06:44:20.209Z,1007.93
2017-09-30T06:45:20.179Z,1007.97
2017-09-30T06:46:20.147Z,1007.99
2017-09-30T06:47:20.116Z,1007.99
2017-09-30T06:48:20.084Z,1007.96
2017-09-30T06:49:20.054Z,1008.02
2017-09-30T06:50:20.023Z,1007.93
2017-09-30T06:51:19.993Z,1008.00
2017-09-30T06:52:19.961Z,1007.97
2017-09-30T06:53:19.932Z,1007.96
2017-09-30T06:54:19.900Z,1007.89
2017-09-30T06:55:19.869Z,1007.87
2017-09-30T06:56:19.838Z,1007.75
2017-09-30T06:57:19.806Z,1007.76
2017-09-30T06:58:19.777Z,1007.74
2017-09-30T06:59:19.748Z,1007.79
2017-09-30T07:00:19.715Z,1007.72
2017-09-30T07:01:19.686Z,1007.74
2017-09-30T07:02:19.655Z,1007.69
2017-09-30T07:03:19.624Z,1007.72
2017-09-30T07:04:19.593Z,1007.62
2017-09-30T07:05:19.563Z,1007.63
2017-09-30T07:06:19.533Z,1007.60
2017-09-30T07:07:19.502Z,1007.62
2017-09-30T07:08:19.474Z,1007.60
2017-09-30T07:09:19.440Z,1007.66
2017-09-30T07:10:19.409Z,1007.58
2017-09-30T07:11:19.377Z,1007.53
2017-09-30T07:12:19.351Z,1007.68
2017-09-30T07:13:19.317Z,1007.66
2017-09-30T07:14:19.288Z,1007.71
2017-09-30T07:15:19.256Z,1007.70
2017-09-30T07:16:19.227Z,1007.69
2017-09-30T07:17:19.195Z,1007.67
2017-09-30T07:18:19.168Z,1007.69
2017-09-30T07:19:19.135Z,1007.67
2017-09-30T07:20:19.106Z,1007.70
2017-09-30T07:21:19.075Z,1007.72
2017-09-30T07:22:19.045Z,1007.70
2017-09-30T07:23:19.011Z,1007.72
2017-09-30T07:24:18.986Z,1007.68
2017-09-30T07:25:18.952Z,1007.73
2017-09-30T07:26:18.921Z,1007.76
2017-09-30T07:27:18.891Z,1007.79
2017-09-30T07:28:18.860Z,1007.85
2017-09-30T07:29:18.833Z,1007.81
2017-09-30T07:30:18.800Z,1007.83
2017-09-30T07:31:18.770Z,1007.86
2017-09-30T07:32:18.740Z,1007.83
2017-09-30T07:33:18.708Z,1007.87
2017-09-30T07:34:18.676Z,1007.85
2017-09-30T07:35:18.646Z,1007.85
2017-09-30T07:36:18.615Z,1007.83
2017-09-30T07:37:18.586Z,1007.82
2017-09-30T07:38:18.552Z,1007.88
2017-09-30T07:39:18.524Z,1007.80
2017-09-30T07:40:18.493Z,1007.85
2017-09-30T07:41:18.463Z,1007.84
2017-09-30T07:42:18.431Z,1007.84
2017-09-30T07:43:18.398Z,1007.81
2017-09-30T07:44:18.369Z,1007.88
2017-09-30T07:45:18.338Z,1007.82
2017-09-30T07:46:18.307Z,1007.82
2017-09-30T07:47:18.276Z,1007.85
2017-09-30T07:48:18.243Z,1007.80
2017-09-30T07:49:18.214Z,1007.82
2017-09-30T07:50:18.185Z,1007.86
2017-09-30T07:51:18.151Z,1007.85
2017-09-30T07:52:18.125Z,1007.83
2017-09-30T07:53:18.092Z,1007.81
2017-09-30T07:54:18.060Z,1007.74
2017-09-30T07:55:18.029Z,1007.78
2017-09-30T07:56:17.999Z,1007.78
2017-09-30T07:57:17.970Z,1007.79
2017-09-30T07:58:17.937Z,1007.76
2017-09-30T07:59:17.907Z,1007.81
2017-09-30T08:00:17.876Z,1007.76
2017-09-30T08:01:17.843Z,1007.72
2017-09-30T08:02:17.814Z,1007.68
2017-09-30T08:03:17.782Z,1007.62
2017-09-30T08:04:17.753Z,1007.57
2017-09-30T08:05:17.722Z,1007.57
2017-09-30T08:06:17.691Z,1007.65
2017-09-30T08:07:17.659Z,1007.64
2017-09-30T08:08:17.630Z,1007.67
2017-09-30T08:09:17.607Z,1007.67
2017-09-30T08:10:17.573Z,1007.60
2017-09-30T08:11:17.539Z,1007.61
2017-09-30T08:12:17.509Z,1007.65
2017-09-30T08:13:17.478Z,1007.66
2017-09-30T08:14:17.448Z,1007.66
2017-09-30T08:15:17.416Z,1007.61
2017-09-30T08:16:17.386Z,1007.70
2017-09-30T08:17:17.358Z,1007.68
2017-09-30T08:18:17.327Z,1007.65
2017-09-30T08:19:17.294Z,1007.63
2017-09-30T08:20:17.265Z,1007.68
2017-09-30T08:21:17.237Z,1007.67
2017-09-30T08:22:17.202Z,1007.63
2017-09-30T08:23:17.170Z,1007.66
2017-09-30T08:24:17.148Z,1007.59
2017-09-30T08:25:17.113Z,1007.62
2017-09-30T08:26:17.081Z,1007.51
2017-09-30T08:27:17.051Z,1007.59
2017-09-30T08:28:17.020Z,1007.59
2017-09-30T08:29:16.990Z,1007.61
2017-09-30T08:30:16.960Z,1007.60
2017-09-30T08:31:16.930Z,1007.60
2017-09-30T08:32:16.896Z,1007.58
2017-09-30T08:33:16.868Z,1007.57
2017-09-30T08:34:16.838Z,1007.61
2017-09-30T08:35:16.810Z,1007.52
2017-09-30T08:36:16.777Z,1007.57
2017-09-30T08:37:16.748Z,1007.61
2017-09-30T08:38:16.717Z,1007.59
2017-09-30T08:39:16.687Z,1007.60
2017-09-30T08:40:16.654Z,1007.57
2017-09-30T08:41:16.626Z,1007.59
2017-09-30T08:42:16.592Z,1007.51
2017-09-30T08:43:16.563Z,1007.52
2017-09-30T08:44:16.533Z,1007.43
2017-09-30T08:45:16.501Z,1007.42
2017-09-30T08:46:16.471Z,1007.49
2017-09-30T08:47:16.447Z,1007.49
2017-09-30T08:48:16.409Z,1007.44
2017-09-30T08:49:16.380Z,1007.39
2017-09-30T08:50:16.350Z,1007.45
2017-09-30T08:51:16.319Z,1007.45
2017-09-30T08:52:16.289Z,1007.38
2017-09-30T08:53:16.258Z,1007.53
2017-09-30T08:54:16.229Z,1007.50
2017-09-30T08:55:16.198Z,1007.53
2017-09-30T08:56:16.167Z,1007.56
2017-09-30T08:57:16.137Z,1007.53
2017-09-30T08:58:16.108Z,1007.56
2017-09-30T08:59:16.076Z,1007.57
2017-09-30T09:00:16.047Z,1007.54
2017-09-30T09:01:16.016Z,1007.53
2017-09-30T09:02:15.986Z,1007.57
2017-09-30T09:03:15.960Z,1007.59
2017-09-30T09:04:15.969Z,1007.57
2017-09-30T09:05:15.896Z,1007.60
2017-09-30T09:06:15.868Z,1007.59
2017-09-30T09:07:15.835Z,1007.59
2017-09-30T09:08:15.805Z,1007.60
2017-09-30T09:09:15.776Z,1007.56
2017-09-30T09:10:15.743Z,1007.59
2017-09-30T09:11:15.713Z,1007.61
2017-09-30T09:12:15.685Z,1007.76
2017-09-30T09:13:15.654Z,1007.65
2017-09-30T09:14:15.622Z,1007.71
2017-09-30T09:15:15.594Z,1007.75
2017-09-30T09:16:15.563Z,1007.70
2017-09-30T09:17:15.531Z,1007.65
2017-09-30T09:18:15.500Z,1007.64
2017-09-30T09:19:15.470Z,1007.74
2017-09-30T09:20:15.440Z,1007.82
2017-09-30T09:21:15.407Z,1007.76
2017-09-30T09:22:15.377Z,1007.83
2017-09-30T09:23:15.346Z,1007.85
2017-09-30T09:24:15.316Z,1007.93
2017-09-30T09:25:15.285Z,1007.90
2017-09-30T09:26:15.253Z,1008.00
2017-09-30T09:27:15.222Z,1007.99
2017-09-30T09:28:15.191Z,1007.94
2017-09-30T09:29:15.157Z,1007.90
2017-09-30T09:30:15.127Z,1007.87
2017-09-30T09:31:15.096Z,1007.85
2017-09-30T09:32:15.063Z,1007.78
2017-09-30T09:33:15.030Z,1007.86
2017-09-30T09:34:15.002Z,1007.84
2017-09-30T09:35:14.972Z,1007.90
2017-09-30T09:36:14.937Z,1007.81
2017-09-30T09:37:14.908Z,1007.77
2017-09-30T09:38:14.872Z,1007.78
2017-09-30T09:39:14.840Z,1007.63
2017-09-30T09:40:14.808Z,1007.75
2017-09-30T09:41:14.775Z,1007.63
2017-09-30T09:42:14.745Z,1007.73
2017-09-30T09:43:14.713Z,1007.70
2017-09-30T09:44:14.679Z,1007.73
2017-09-30T09:45:14.651Z,1007.75
2017-09-30T09:46:14.618Z,1007.61
2017-09-30T09:47:14.586Z,1007.82
2017-09-30T09:48:14.552Z,1007.72
2017-09-30T09:49:14.522Z,1007.80
2017-09-30T09:50:14.490Z,1007.83
2017-09-30T09:51:14.458Z,1007.72
2017-09-30T09:52:14.427Z,1007.63
2017-09-30T09:53:14.393Z,1007.82
2017-09-30T09:54:14.364Z,1007.74
2017-09-30T09:55:14.330Z,1007.79
2017-09-30T09:56:14.322Z,1007.90
2017-09-30T09:57:14.262Z,1007.89
2017-09-30T09:58:14.235Z,1007.86
2017-09-30T09:59:14.201Z,1007.79
2017-09-30T10:00:14.171Z,1007.75
2017-09-30T10:01:14.136Z,1007.89
2017-09-30T10:02:14.106Z,1007.93
2017-09-30T10:03:14.074Z,1007.87
2017-09-30T10:04:14.042Z,1007.89
2017-09-30T10:05:14.011Z,1007.95
2017-09-30T10:06:13.980Z,1008.02
2017-09-30T10:07:13.947Z,1007.88
2017-09-30T10:08:13.915Z,1007.96
2017-09-30T10:09:13.883Z,1007.95
2017-09-30T10:10:13.851Z,1007.93
2017-09-30T10:11:13.817Z,1007.99
2017-09-30T10:12:13.791Z,1008.03
2017-09-30T10:13:13.758Z,1008.08
2017-09-30T10:14:13.721Z,1008.09
2017-09-30T10:15:13.689Z,1008.08
2017-09-30T10:16:13.656Z,1008.12
2017-09-30T10:17:13.624Z,1008.05
2017-09-30T10:18:13.594Z,1008.07
2017-09-30T10:19:13.559Z,1008.09
2017-09-30T10:20:13.530Z,1008.06
2017-09-30T10:21:13.496Z,1008.00
2017-09-30T10:22:13.466Z,1008.03
2017-09-30T10:23:13.431Z,1007.96
2017-09-30T10:24:13.401Z,1008.06
2017-09-30T10:25:13.368Z,1008.07
2017-09-30T10:26:13.337Z,1007.96
2017-09-30T10:27:13.304Z,1008.06
2017-09-30T10:28:13.274Z,1008.05
2017-09-30T10:29:13.239Z,1008.05
2017-09-30T10:30:13.209Z,1008.08
2017-09-30T10:31:13.176Z,1008.08
2017-09-30T10:32:13.143Z,1008.13
2017-09-30T10:33:13.112Z,1008.13
2017-09-30T10:34:13.083Z,1008.10
2017-09-30T10:35:13.047Z,1007.98
2017-09-30T10:36:13.023Z,1008.11
2017-09-30T10:37:12.984Z,1008.08
2017-09-30T10:38:12.952Z,1008.07
2017-09-30T10:39:12.920Z,1008.05
2017-09-30T10:40:12.888Z,1008.07
2017-09-30T10:41:12.857Z,1008.02
2017-09-30T10:42:12.823Z,1008.00
2017-09-30T10:43:12.792Z,1007.97
2017-09-30T10:44:12.759Z,1007.98
2017-09-30T10:45:12.729Z,1007.95
2017-09-30T10:46:12.699Z,1007.96
2017-09-30T10:47:12.664Z,1007.96
2017-09-30T10:48:12.633Z,1008.03
2017-09-30T10:49:12.602Z,1008.00
2017-09-30T10:50:12.571Z,1007.99
2017-09-30T10:51:12.538Z,1008.01
2017-09-30T10:52:12.505Z,1008.00
2017-09-30T10:53:12.473Z,1008.05
2017-09-30T10:54:12.447Z,1008.07
2017-09-30T10:55:12.410Z,1008.02
2017-09-30T10:56:12.380Z,1008.01
2017-09-30T10:57:12.348Z,1008.05
2017-09-30T10:58:12.318Z,1008.03
2017-09-30T10:59:12.292Z,1008.00
2017-09-30T11:00:12.253Z,1007.99
2017-09-30T11:01:12.222Z,1008.03
2017-09-30T11:02:12.189Z,1008.05
2017-09-30T11:03:12.155Z,1008.04
2017-09-30T11:04:12.133Z,1008.01
2017-09-30T11:05:12.102Z,1008.00
2017-09-30T11:06:12.063Z,1008.02
2017-09-30T11:07:12.030Z,1008.02
2017-09-30T11:08:12.007Z,1008.04
2017-09-30T11:09:11.969Z,1007.95
2017-09-30T11:10:11.939Z,1008.03
2017-09-30T11:11:11.905Z,1008.02
2017-09-30T11:12:11.873Z,1008.02
2017-09-30T11:13:11.842Z,1008.00
2017-09-30T11:14:11.810Z,1007.99
2017-09-30T11:15:11.781Z,1008.01
2017-09-30T11:16:11.747Z,1008.07
2017-09-30T11:17:11.712Z,1008.08
2017-09-30T11:18:11.682Z,1008.05
2017-09-30T11:19:11.652Z,1008.11
2017-09-30T11:20:11.618Z,1008.06
2017-09-30T11:21:11.587Z,1008.10
2017-09-30T11:22:11.554Z,1008.07
2017-09-30T11:23:11.527Z,1008.03
2017-09-30T11:24:11.488Z,1008.11
2017-09-30T11:25:11.458Z,1008.04
2017-09-30T11:26:11.425Z,1008.11
2017-09-30T11:27:11.394Z,1008.13
2017-09-30T11:28:11.370Z,1008.14
2017-09-30T11:29:11.330Z,1008.19
2017-09-30T11:30:11.299Z,1008.13
2017-09-30T11:31:11.265Z,1008.09
2017-09-30T11:32:11.234Z,1008.16
2017-09-30T11:33:11.204Z,1008.15
2017-09-30T11:34:11.170Z,1008.14
2017-09-30T11:35:11.137Z,1008.14
2017-09-30T11:36:11.106Z,1008.18
2017-09-30T11:37:11.074Z,1008.17
2017-09-30T11:38:11.042Z,1008.15
2017-09-30T11:39:11.013Z,1008.16
2017-09-30T11:40:10.978Z,1008.02
2017-09-30T11:41:10.947Z,1008.05
2017-09-30T11:42:10.914Z,1008.10
2017-09-30T11:43:10.883Z,1008.02
2017-09-30T11:44:10.850Z,1008.16
2017-09-30T11:45:10.821Z,1008.18
2017-09-30T11:46:10.786Z,1008.17
2017-09-30T11:47:10.755Z,1008.15
2017-09-30T11:48:10.722Z,1008.07
2017-09-30T11:49:10.691Z,1008.10
2017-09-30T11:50:10.657Z,1008.18
2017-09-30T11:51:10.629Z,1008.14
2017-09-30T11:52:10.595Z,1008.26
2017-09-30T11:53:10.564Z,1008.14
2017-09-30T11:54:10.536Z,1008.26
2017-09-30T11:55:10.501Z,1008.21
2017-09-30T11:56:10.468Z,1008.23
2017-09-30T11:57:10.436Z,1008.23
2017-09-30T11:58:10.406Z,1008.22
2017-09-30T11:59:10.374Z,1008.26
2017-09-30T12:00:10.350Z,1008.24
2017-09-30T12:01:10.309Z,1008.17
2017-09-30T12:02:10.278Z,1008.28
2017-09-30T12:03:10.246Z,1008.21
2017-09-30T12:04:10.214Z,1008.20
2017-09-30T12:05:10.182Z,1008.16